createdAt,value
2022-10-05T00:02:35.871Z,17.51
2022-10-05T00:05:40.292Z,17.41
2022-10-05T00:08:43.809Z,17.67
2022-10-05T00:11:46.986Z,17.65
2022-10-05T00:14:50.959Z,17.64
2022-10-05T00:17:53.667Z,17.60
2022-10-05T00:20:58.137Z,17.58
2022-10-05T00:24:01.967Z,17.46
2022-10-05T00:27:12.589Z,17.20
2022-10-05T00:30:16.513Z,17.49
2022-10-05T00:33:19.192Z,17.58
2022-10-05T00:36:23.549Z,17.51
2022-10-05T00:39:26.537Z,17.67
2022-10-05T00:42:37.380Z,17.38
2022-10-05T00:45:45.120Z,17.56
2022-10-05T00:48:51.382Z,17.60
2022-10-05T00:52:00.050Z,17.09
2022-10-05T00:55:08.936Z,17.41
2022-10-05T00:58:17.582Z,17.41
2022-10-05T01:01:25.263Z,17.52
2022-10-05T01:04:30.833Z,17.20
2022-10-05T01:07:40.536Z,16.99
2022-10-05T01:10:46.132Z,17.47
2022-10-05T01:13:52.504Z,17.56
2022-10-05T01:17:00.070Z,17.35
2022-10-05T01:20:16.657Z,17.41
2022-10-05T01:23:52.545Z,17.37
2022-10-05T01:27:03.049Z,17.52
2022-10-05T01:30:09.838Z,17.42
2022-10-05T01:33:16.901Z,17.41
2022-10-05T01:36:23.797Z,16.68
2022-10-05T01:39:31.372Z,17.26
2022-10-05T01:42:38.684Z,17.28
2022-10-05T01:45:49.800Z,17.39
2022-10-05T01:49:03.110Z,17.10
2022-10-05T01:52:12.242Z,17.43
2022-10-05T01:55:19.551Z,17.50
2022-10-05T01:58:29.036Z,17.32
2022-10-05T02:01:36.906Z,17.39
2022-10-05T02:05:01.452Z,17.46
2022-10-05T02:08:08.541Z,17.50
2022-10-05T02:11:12.592Z,17.40
2022-10-05T02:14:17.809Z,17.28
2022-10-05T02:17:25.301Z,17.70
2022-10-05T02:20:29.985Z,17.27
2022-10-05T02:23:34.375Z,17.42
2022-10-05T02:26:38.422Z,17.12
2022-10-05T02:29:43.031Z,17.36
2022-10-05T02:32:50.988Z,17.48
2022-10-05T02:35:54.080Z,17.27
2022-10-05T02:39:01.104Z,17.18
2022-10-05T02:42:09.077Z,17.35
2022-10-05T02:45:16.891Z,16.77
2022-10-05T02:48:25.097Z,17.30
2022-10-05T02:51:29.594Z,17.43
2022-10-05T02:54:45.660Z,17.48
2022-10-05T02:57:50.900Z,17.25
2022-10-05T03:00:58.671Z,17.21
2022-10-05T03:04:07.778Z,17.24
2022-10-05T03:07:15.369Z,17.11
2022-10-05T03:10:23.479Z,17.06
2022-10-05T03:13:27.836Z,17.29
2022-10-05T03:16:39.397Z,17.41
2022-10-05T03:19:54.267Z,17.33
2022-10-05T03:22:59.471Z,17.15
2022-10-05T03:26:07.221Z,17.05
2022-10-05T03:29:18.953Z,17.39
2022-10-05T03:32:26.655Z,17.28
2022-10-05T03:35:31.951Z,17.40
2022-10-05T03:38:40.360Z,17.31
2022-10-05T03:41:46.711Z,17.30
2022-10-05T03:44:53.884Z,17.19
2022-10-05T03:48:01.974Z,17.45
2022-10-05T03:51:09.134Z,17.19
2022-10-05T03:54:17.667Z,17.16
2022-10-05T03:57:22.601Z,17.32
2022-10-05T04:00:25.767Z,16.94
2022-10-05T04:03:32.108Z,17.19
2022-10-05T04:06:38.020Z,17.10
2022-10-05T04:09:42.080Z,17.14
2022-10-05T04:12:47.251Z,17.17
2022-10-05T04:15:55.125Z,17.13
2022-10-05T04:19:00.690Z,17.17
2022-10-05T04:22:07.440Z,17.03
2022-10-05T04:25:16.301Z,17.19
2022-10-05T04:28:27.051Z,17.30
2022-10-05T04:31:43.004Z,17.37
2022-10-05T04:34:55.369Z,17.14
2022-10-05T04:38:04.069Z,17.36
2022-10-05T04:41:15.961Z,17.11
2022-10-05T04:44:28.860Z,17.36
2022-10-05T04:47:52.329Z,17.21
2022-10-05T04:51:01.408Z,17.26
2022-10-05T04:54:12.668Z,17.20
2022-10-05T04:57:19.031Z,17.36
2022-10-05T05:00:23.921Z,17.07
2022-10-05T05:03:41.558Z,17.48
2022-10-05T05:06:48.254Z,17.29
2022-10-05T05:10:01.630Z,17.19
2022-10-05T05:13:12.483Z,17.27
2022-10-05T05:16:20.859Z,17.35
2022-10-05T05:19:29.740Z,17.27
2022-10-05T05:22:36.740Z,17.44
2022-10-05T05:25:47.260Z,17.41
2022-10-05T05:28:52.283Z,17.35
2022-10-05T05:32:00.474Z,17.36
2022-10-05T05:35:27.391Z,17.41
2022-10-05T05:38:34.077Z,17.42
2022-10-05T05:41:39.055Z,17.60
2022-10-05T05:44:43.322Z,17.21
2022-10-05T05:47:52.051Z,17.44
2022-10-05T05:50:58.372Z,17.68
2022-10-05T05:54:06.827Z,17.65
2022-10-05T05:57:14.715Z,18.17
2022-10-05T06:00:18.157Z,18.50
2022-10-05T06:03:24.302Z,18.57
2022-10-05T06:06:28.506Z,18.79
2022-10-05T06:09:36.033Z,18.97
2022-10-05T06:12:43.370Z,19.10
2022-10-05T06:15:50.371Z,19.12
2022-10-05T06:18:55.898Z,19.31
2022-10-05T06:22:02.931Z,19.40
2022-10-05T06:25:13.237Z,19.53
2022-10-05T06:28:17.358Z,19.53
2022-10-05T06:31:25.566Z,19.66
2022-10-05T06:34:39.223Z,19.79
2022-10-05T06:37:56.875Z,19.87
2022-10-05T06:41:05.628Z,19.87
2022-10-05T06:44:13.760Z,20.00
2022-10-05T06:47:19.318Z,20.04
2022-10-05T06:50:28.122Z,20.02
2022-10-05T06:53:34.987Z,20.02
2022-10-05T06:56:42.365Z,20.01
2022-10-05T06:59:51.135Z,20.04
2022-10-05T07:02:58.541Z,20.23
2022-10-05T07:06:07.459Z,20.21
2022-10-05T07:09:18.823Z,20.32
2022-10-05T07:12:36.956Z,20.19
2022-10-05T07:15:46.219Z,20.22
2022-10-05T07:18:52.692Z,20.34
2022-10-05T07:22:04.923Z,20.41
2022-10-05T07:25:11.676Z,20.45
2022-10-05T07:28:18.993Z,20.35
2022-10-05T07:31:29.509Z,20.21
2022-10-05T07:34:37.332Z,20.33
2022-10-05T07:37:57.313Z,20.37
2022-10-05T07:41:03.235Z,20.48
2022-10-05T07:44:13.066Z,20.38
2022-10-05T07:47:21.899Z,20.43
2022-10-05T07:50:27.505Z,20.35
2022-10-05T07:53:33.997Z,20.39
2022-10-05T07:56:40.967Z,20.30
2022-10-05T07:59:45.702Z,20.24
2022-10-05T08:02:52.181Z,20.23
2022-10-05T08:05:55.910Z,20.20
2022-10-05T08:09:03.063Z,20.24
2022-10-05T08:12:10.814Z,20.23
2022-10-05T08:15:15.964Z,20.38
2022-10-05T08:18:22.965Z,20.37
2022-10-05T08:21:28.758Z,20.39
2022-10-05T08:24:36.896Z,20.37
2022-10-05T08:27:44.575Z,20.32
2022-10-05T08:30:54.648Z,20.24
2022-10-05T08:34:20.314Z,20.27
2022-10-05T08:37:27.466Z,20.32
2022-10-05T08:40:51.721Z,20.31
2022-10-05T08:44:16.230Z,20.34
2022-10-05T08:47:47.192Z,20.30
2022-10-05T08:51:16.846Z,20.31
2022-10-05T08:54:27.411Z,20.29
2022-10-05T08:57:51.072Z,20.44
2022-10-05T09:00:57.981Z,20.46
2022-10-05T09:04:28.227Z,20.54
2022-10-05T09:07:57.349Z,20.51
2022-10-05T09:11:04.096Z,20.56
2022-10-05T09:14:18.541Z,20.54
2022-10-05T09:17:35.913Z,20.62
2022-10-05T09:20:47.867Z,20.54
2022-10-05T09:23:57.191Z,20.59
2022-10-05T09:27:04.934Z,20.67
2022-10-05T09:30:16.778Z,20.64
2022-10-05T09:33:43.902Z,20.62
2022-10-05T09:37:17.229Z,20.40
2022-10-05T09:40:40.850Z,20.58
2022-10-05T09:44:01.470Z,20.46
2022-10-05T09:47:14.871Z,20.56
2022-10-05T09:50:35.589Z,20.65
2022-10-05T09:53:53.520Z,20.57
2022-10-05T09:57:12.650Z,20.57
2022-10-05T10:00:24.181Z,20.66
2022-10-05T10:03:43.441Z,20.82
2022-10-05T10:07:00.332Z,20.79
2022-10-05T10:10:20.913Z,20.70
2022-10-05T10:13:32.670Z,20.72
2022-10-05T10:17:02.409Z,20.67
2022-10-05T10:20:27.354Z,20.68
2022-10-05T10:23:39.279Z,20.65
2022-10-05T10:26:56.315Z,20.69
2022-10-05T10:30:19.010Z,20.72
2022-10-05T10:33:34.517Z,20.64
2022-10-05T10:36:47.628Z,20.71
2022-10-05T10:40:03.490Z,20.74
2022-10-05T10:43:26.557Z,20.75
2022-10-05T10:46:37.918Z,20.71
2022-10-05T10:49:51.164Z,20.80
2022-10-05T10:53:03.002Z,20.79
2022-10-05T10:56:20.731Z,20.69
2022-10-05T10:59:40.266Z,20.74
2022-10-05T11:02:58.324Z,20.76
2022-10-05T11:06:21.856Z,20.59
2022-10-05T11:09:46.758Z,20.66
2022-10-05T11:13:02.888Z,20.72
2022-10-05T11:16:19.799Z,20.64
2022-10-05T11:20:04.048Z,20.69
2022-10-05T11:23:20.760Z,20.62
2022-10-05T11:26:33.868Z,20.65
2022-10-05T11:29:59.267Z,20.61
2022-10-05T11:33:13.576Z,19.71
2022-10-05T11:36:35.006Z,19.65
2022-10-05T11:39:44.108Z,19.32
2022-10-05T11:43:01.572Z,19.13
2022-10-05T11:46:08.327Z,19.29
2022-10-05T11:49:25.948Z,19.12
2022-10-05T11:52:31.916Z,19.24
2022-10-05T11:55:38.789Z,19.25
2022-10-05T11:58:44.751Z,19.23
2022-10-05T12:01:53.611Z,19.15
2022-10-05T12:05:02.597Z,18.80
2022-10-05T12:08:16.081Z,18.83
2022-10-05T12:11:37.254Z,18.79
2022-10-05T12:14:43.965Z,19.43
2022-10-05T12:17:51.159Z,19.62
2022-10-05T12:20:57.296Z,19.81
2022-10-05T12:24:01.431Z,19.90
2022-10-05T12:27:09.018Z,19.93
2022-10-05T12:30:14.735Z,19.90
2022-10-05T12:33:20.785Z,19.84
2022-10-05T12:36:46.242Z,20.02
2022-10-05T12:39:56.786Z,20.07
2022-10-05T12:43:05.833Z,20.11
2022-10-05T12:46:17.053Z,20.12
2022-10-05T12:49:28.395Z,20.10
2022-10-05T12:52:46.994Z,20.11
2022-10-05T12:55:54.517Z,20.14
2022-10-05T12:59:04.300Z,20.12
2022-10-05T13:02:13.032Z,20.15
2022-10-05T13:05:21.122Z,20.14
2022-10-05T13:08:26.760Z,20.23
2022-10-05T13:11:35.434Z,20.08
2022-10-05T13:14:47.589Z,20.11
2022-10-05T13:17:55.794Z,20.35
2022-10-05T13:21:04.625Z,20.24
2022-10-05T13:24:13.440Z,20.37
2022-10-05T13:27:18.936Z,20.34
2022-10-05T13:30:23.225Z,20.21
2022-10-05T13:33:35.122Z,20.24
2022-10-05T13:36:43.445Z,20.18
2022-10-05T13:39:55.619Z,20.22
2022-10-05T13:43:02.819Z,20.22
2022-10-05T13:46:08.977Z,20.14
2022-10-05T13:49:20.154Z,20.19
2022-10-05T13:52:30.205Z,20.32
2022-10-05T13:55:41.183Z,20.18
2022-10-05T13:58:47.648Z,20.17
2022-10-05T14:01:55.815Z,20.21
2022-10-05T14:05:02.035Z,20.21
2022-10-05T14:08:17.094Z,20.20
2022-10-05T14:11:27.276Z,20.03
2022-10-05T14:14:32.312Z,20.10
2022-10-05T14:17:40.837Z,20.11
2022-10-05T14:20:57.795Z,20.14
2022-10-05T14:24:25.714Z,20.06
2022-10-05T14:27:49.172Z,20.05
2022-10-05T14:30:59.482Z,20.05
2022-10-05T14:34:20.977Z,20.15
2022-10-05T14:37:26.193Z,19.97
2022-10-05T14:40:31.307Z,20.00
2022-10-05T14:43:35.313Z,20.15
2022-10-05T14:46:41.730Z,19.98
2022-10-05T14:49:50.725Z,19.93
2022-10-05T14:53:16.637Z,19.95
2022-10-05T14:56:40.644Z,19.76
2022-10-05T14:59:51.355Z,19.87
2022-10-05T15:03:10.236Z,19.86
2022-10-05T15:06:20.949Z,19.80
2022-10-05T15:09:47.072Z,19.91
2022-10-05T15:12:49.760Z,19.85
2022-10-05T15:15:57.637Z,19.89
2022-10-05T15:19:04.509Z,19.73
2022-10-05T15:22:19.235Z,19.86
2022-10-05T15:25:28.885Z,19.64
2022-10-05T15:28:35.459Z,19.71
2022-10-05T15:31:41.844Z,19.74
2022-10-05T15:34:49.959Z,19.73
2022-10-05T15:37:55.905Z,19.82
2022-10-05T15:41:03.016Z,19.79
2022-10-05T15:44:15.159Z,19.69
2022-10-05T15:47:21.732Z,19.64
2022-10-05T15:50:27.042Z,19.73
2022-10-05T15:53:36.088Z,19.69
2022-10-05T15:56:42.641Z,19.77
2022-10-05T15:59:50.891Z,19.73
2022-10-05T16:02:58.088Z,19.92
2022-10-05T16:06:20.568Z,19.84
2022-10-05T16:09:36.827Z,19.81
2022-10-05T16:12:45.531Z,19.87
2022-10-05T16:15:51.025Z,19.90
2022-10-05T16:19:01.120Z,19.86
2022-10-05T16:22:15.285Z,19.60
2022-10-05T16:25:22.447Z,19.68
2022-10-05T16:28:36.782Z,19.70
2022-10-05T16:31:44.156Z,19.80
2022-10-05T16:35:02.656Z,19.73
2022-10-05T16:38:10.722Z,19.78
2022-10-05T16:41:22.580Z,19.73
2022-10-05T16:44:32.692Z,19.78
2022-10-05T16:47:42.099Z,19.69
2022-10-05T16:50:51.190Z,19.70
2022-10-05T16:54:00.395Z,19.85
2022-10-05T16:57:06.209Z,19.82
2022-10-05T17:00:23.627Z,19.79
2022-10-05T17:03:41.021Z,19.85
2022-10-05T17:06:57.142Z,19.83
2022-10-05T17:10:28.550Z,19.87
2022-10-05T17:13:43.704Z,19.92
2022-10-05T17:16:55.988Z,19.78
2022-10-05T17:20:12.064Z,19.87
2022-10-05T17:23:35.768Z,19.88
2022-10-05T17:26:55.001Z,19.81
2022-10-05T17:30:21.372Z,19.95
2022-10-05T17:33:30.269Z,19.92
2022-10-05T17:36:39.338Z,19.92
2022-10-05T17:39:49.982Z,19.92
2022-10-05T17:43:01.170Z,20.02
2022-10-05T17:46:07.086Z,19.98
2022-10-05T17:49:39.440Z,20.10
2022-10-05T17:53:02.674Z,19.99
2022-10-05T17:56:07.877Z,19.93
2022-10-05T18:02:45.328Z,20.06
2022-10-05T18:06:09.153Z,20.07
2022-10-05T18:09:35.605Z,20.07
2022-10-05T18:12:49.089Z,20.04
2022-10-05T18:16:09.808Z,20.00
2022-10-05T18:19:17.384Z,20.13
2022-10-05T18:22:31.456Z,20.06
2022-10-05T18:25:38.749Z,20.17
2022-10-05T18:29:01.685Z,20.09
2022-10-05T18:32:13.135Z,20.05
2022-10-05T18:35:20.642Z,19.94
2022-10-05T18:38:31.540Z,20.10
2022-10-05T18:41:42.650Z,20.06
2022-10-05T18:44:47.334Z,20.12
2022-10-05T18:47:57.525Z,20.12
2022-10-05T18:51:05.318Z,20.21
2022-10-05T18:54:18.261Z,20.21
2022-10-05T18:57:42.903Z,20.24
2022-10-05T19:01:00.535Z,20.21
2022-10-05T19:04:20.086Z,20.18
2022-10-05T19:07:39.425Z,20.21
2022-10-05T19:10:47.241Z,20.11
2022-10-05T19:13:58.269Z,20.03
2022-10-05T19:17:20.678Z,20.11
2022-10-05T19:20:30.183Z,20.22
2022-10-05T19:23:51.992Z,20.07
2022-10-05T19:27:02.434Z,20.17
2022-10-05T19:30:19.497Z,20.17
2022-10-05T19:33:39.923Z,20.04
2022-10-05T19:36:55.567Z,20.14
2022-10-05T19:40:07.190Z,20.16
2022-10-05T19:43:19.177Z,20.13
2022-10-05T19:46:27.422Z,20.11
2022-10-05T19:49:38.010Z,20.17
2022-10-05T19:52:48.969Z,20.15
2022-10-05T19:55:53.140Z,20.20
2022-10-05T20:02:17.241Z,20.03
2022-10-05T20:05:20.476Z,19.94
2022-10-05T20:08:27.022Z,19.81
2022-10-05T20:11:31.531Z,19.78
2022-10-05T20:14:59.217Z,19.77
2022-10-05T20:18:49.918Z,19.74
2022-10-05T20:21:54.137Z,19.63
2022-10-05T20:25:00.135Z,19.58
2022-10-05T20:28:03.038Z,19.71
2022-10-05T20:31:07.003Z,19.66
2022-10-05T20:34:09.717Z,19.77
2022-10-05T20:37:13.440Z,19.75
2022-10-05T20:40:19.827Z,19.67
2022-10-05T20:43:22.953Z,19.74
2022-10-05T20:46:25.686Z,19.53
2022-10-05T20:49:28.624Z,19.42
2022-10-05T20:52:31.687Z,19.45
2022-10-05T20:55:36.417Z,19.41
2022-10-05T20:58:44.394Z,19.36
2022-10-05T21:01:48.140Z,19.34
2022-10-05T21:04:50.857Z,19.33
2022-10-05T21:07:53.609Z,19.26
2022-10-05T21:10:58.062Z,19.23
2022-10-05T21:14:05.438Z,19.37
2022-10-05T21:17:09.620Z,19.25
2022-10-05T21:20:12.366Z,19.22
2022-10-05T21:23:15.016Z,19.28
2022-10-05T21:26:19.084Z,19.22
2022-10-05T21:29:22.182Z,19.24
2022-10-05T21:32:24.978Z,19.22
2022-10-05T21:35:27.676Z,19.49
2022-10-05T21:38:30.986Z,19.43
2022-10-05T21:41:35.143Z,19.55
2022-10-05T21:44:37.813Z,19.63
2022-10-05T21:47:40.536Z,19.64
2022-10-05T21:50:43.436Z,19.65
2022-10-05T21:53:48.780Z,19.65
2022-10-05T21:56:53.673Z,19.68
2022-10-05T21:59:56.397Z,19.67
2022-10-05T22:02:59.097Z,19.68
2022-10-05T22:06:03.737Z,19.77
2022-10-05T22:09:06.516Z,19.69
2022-10-05T22:12:10.618Z,19.76
2022-10-05T22:15:13.417Z,19.71
2022-10-05T22:18:17.571Z,19.80
2022-10-05T22:21:21.124Z,19.69
2022-10-05T22:24:23.788Z,19.86
2022-10-05T22:27:28.989Z,19.71
2022-10-05T22:30:31.772Z,19.75
2022-10-05T22:33:34.908Z,19.82
2022-10-05T22:36:37.709Z,19.81
2022-10-05T22:39:40.559Z,19.70
2022-10-05T22:42:44.619Z,19.75
2022-10-05T22:45:47.292Z,19.79
2022-10-05T22:48:50.065Z,19.86
2022-10-05T22:51:52.745Z,19.81
2022-10-05T22:54:55.439Z,19.78
2022-10-05T22:57:59.488Z,19.76
2022-10-05T23:01:03.760Z,19.81
2022-10-05T23:04:08.770Z,19.81
2022-10-05T23:07:11.493Z,19.80
2022-10-05T23:10:15.677Z,19.86
2022-10-05T23:13:19.780Z,19.83
2022-10-05T23:16:23.413Z,19.85
2022-10-05T23:19:26.125Z,19.73
2022-10-05T23:22:28.886Z,19.71
2022-10-05T23:25:31.576Z,19.68
2022-10-05T23:28:35.751Z,19.78
2022-10-05T23:31:38.574Z,19.80
2022-10-05T23:34:41.257Z,19.78
2022-10-05T23:37:45.084Z,19.82
2022-10-05T23:40:48.470Z,19.83
2022-10-05T23:43:54.691Z,19.80
2022-10-05T23:46:57.352Z,19.75
2022-10-05T23:50:00.650Z,19.75
2022-10-05T23:53:03.305Z,19.81
2022-10-05T23:56:06.175Z,19.51
2022-10-05T23:59:10.301Z,19.70
